Timeline UpdatesTrip UpdatesNews PostsPvt PostsTravel TipsAdmin PostsConv PostsFollowed PostsChat RequestsBlog PostsPNR Posts

Disclaimer
Search
 
 
Tue Sep 16, 2014 18:59:35 ISTHomeTrainsΣChainsAtlasPNRForumGalleryNewsFAQTripsMembersLoginFeedback
No Recent News for this Train
Other Trains in the News **new
Latest...
.
Mon Sep 01, 2014 (10:08PM)
⇐ Return Journey: Train# 15027

15028/Maurya Express

Time-Table HAS CHANGED.
Sep 03 (1:57PM)
Change Departure Station:
Change Arrival Station:
Post a Train Travel TipPost a Train Travel Tip **new
Post a Comment/Question/Picture/VideoPost a Comment/Question/Picture/Video
Pantry/Catering
✕ NO Pantry Car
✓ Catering Avbl
RSA - Rake Sharing
Rake/Coach Composition
LOCO-SLR-GS-GS-GS-GS-GS-GS-A1-B1-S4-S3-S2-S1-GS-SLR
Loco
GD WDM-3A (GKP-BJU) HWH WAP-4 (BJU-HTE)
News    PNR    Forum    Time-Table    Availability    Fare Chart    Map    Arr/Dep History    Trips    Gallery    ΣChains    X/O    Timeline    
Travel Time: 7h 13m    8 halts    Distance: 208 km    Avg Speed: 28 km/hr
Type: Mail/Express
Zone: NER/North Eastern
Departs @ 00:57 (Avg 3h 42m late)
Platform# ???
SMTWTFS
Kumardubi/KMME 
Arrives @ 08:10 (Avg 2h 23m late)
Platform# 3
SMTWTFS
Hatia/HTE 

8 halts. 44 intermediate Stations between Kumardubi and Hatia

Hide intermediate Stations  Show Old Time-Table

#CodeStation NameX/OArrivesAvgDepartsAvgHaltPFDay#KmSpeedElevZoneAddress
1GKPGorakhpur Junction (10)  -07:25+121-640.86484mNERGorakhpur 273001, Uttar Pradesh
1.1GKCGorakhpur Cantt. (3)X  07:29-07:29-  1-637.1 6485mNERGorakhpur-273001, Uttar Pradesh
1.2KHMKusmhi (2)X  07:37-07:37-  1-627.7 6483mNERGorakhpur, Uttar Pradesh
1.3SANRSardarnagar  07:43-07:43-  1-621.7 6482mNERGorakhpur-Deoria Road, Uttar Pradesh
2CCChauri Chaura (2)X  07:48+1807:50+222m--1-616.55884mNERGorakhpur- PinCode:- 273201, Uttar Pradesh
3GBGauri Bazar (2)  08:01 08:00+2408:03 08:02+282m--1-606.75082mNERDistrict Deoria- Pincode- 274202, Uttar Pradesh
3.1BALRBaitalpur (2)X  08:12-08:12-  1-598.3 5082mNERPin- 274201, Uttar Pradesh
4DEOSDeoria Sadar (3)  08:18 08:20+4408:20 08:22+522m--1-591.76979mNERDeoria- 274001, Uttar Pradesh
4.1AHLRAhalyapurX  08:27-08:27-  1-585.6 6981mNERDeoria, Uttar Pradesh
4.2NRANunkhar (2)  08:34-08:34-  1-578.2 6975mNERBaikunthpur, Uttar Pradesh
5BTTBhatni Junction (5)  08:43 08:40+5608:48 08:45+585m--1-570.95173mNERDeoria, Uttar Pradesh
5.1NNPRNonapar  08:51-08:51-  1-566.2 5176mNERSalempur Mairwa Rd, Uttar Pradesh
6BHTRBhatpar Rani (2)  08:59 09:00+1:0409:01 09:02+1:042m--1-558.15473mNERDeoria, Uttar Pradesh
7BTKBankata (2)  09:11+1:0309:13+1:052m--1-550.04973mNERDeoria, Uttar Pradesh
8MWMairwa (2)  09:22 09:21+1:0509:24 09:23+1:062m--1-543.56673mNERMairwa, Bihar
8.1KYWKarchhue  09:28-09:28-  1-538.0 6670mNERState Highway 47, Bihar
9ZRDEJiradei (2)X09:37 09:33+1:0709:38 09:35+1:111 2m--1-532.56269mNERSiwan, Bihar
10SVSiwan Junction (4)  09:46 09:45+1:2109:51 09:50+1:225m--1-522.27170mNERSiwan, Bihar
10.1PCKPachrukhi (2)X  09:57-09:57-  1-513.9 7167mNERPachrukhi, Bihar
11DDADuraundha Junction (3)  10:06 10:05+1:2410:08 10:07+1:242m--1-504.45864mNERDistt: Siwan, Bihar
11.1CWChainwa (2)X  10:15-10:15-  1-496.2 5863mNERSiwan, Bihar
11.2MHRNMahendranath Halt (2)  10:17-10:17-  1-494.2 5863mNERMahendrana, Uttar Pradesh
12EKMAEkma (3)X  10:23+1:3110:25+1:322m--1-488.92864mNERSaran, Bihar
12.1DDPDaudpur (2)  10:44-10:44-  1-480.3 2859mNERChhapra, Bihar
12.2KPSKopa Samhota (2)X  11:02-11:02-  1-471.6 2869mNERKopa Samhota Station Rd, Bihar
12.3TKVRTeknewas (2)  11:16-11:16-  1-465.4 2858mNERSaran, Bihar
13CPRChhapra Junction (6)X  11:25+1:1811:35+1:3910m--1-461.01358mNERDistt: Saran, Bihar
14CIChhapra Kacheri (3)  11:43 11:45+1:5411:45 11:47+2:012m--1-458.96957mNERChhapra, Bihar
14.1GJHGoldinganj (2)  11:55-11:55-  1-449.8 6958mECRChapra Patna Highway, Bihar
14.2DRIDumri Juara (2)  11:59-11:59-  1-445.1 6957mECRSaran, Bihar
14.3BAGLBaragopal (2)  12:03-12:03-  1-441.0 6957mECRSH 46, Bihar
14.4PPDAPanchpatia Deoria Halt (1)  12:05-12:05-  1-438.2 6957mECRNH 19, Bihar
14.5ATNRAwatarnagar (2)  12:07-12:07-  1-436.0 6956mECRNH 19, Bihar
14.6AABHAmbika Bhawani Halt (1)X  12:09-12:09-  1-434.1 6959mECRNH 19, Bihar
15DGADighwara (2)  12:09 12:12+2:1312:11 12:14+2:132m21-430.26360mECR06158-281240, Bihar
15.1STLRSitalpur (2)  12:18-12:18-  1-426.0 6357mECRSitalpur, Bihar
15.2NYONayagaon (2)  12:25-12:25-  1-418.3 6353mECRNayagaon Sarai, Bihar
15.3PMUParmanandpur (2)X  12:30-12:30-  1-413.7 6356mECRNational Highway 19, Bihar
16SEESonpur Junction (4)X  12:43 12:36+2:3212:53 12:41+2:4810 5m--1-407.03356mECRSaran, Bihar
17HJPHajipur Junction (3)X  13:06 12:51+2:3313:08 13:10+2:412 19m21-401.55455mECR06224-272230, Bihar
17.1GWHGhoshawar (1)  13:15-13:15-  1-396.9 5454mECRDaulatpur Deoria urf Daulatpur, Bihar
17.2SAISarai (1)  13:22-13:22-  1-390.9 5454mECRVaishali, Bihar
17.3BTHLBithauli (1)X  13:27-13:27-  1-386.5 5458mECRVaishali, Bihar
18BNRBhagwanpur (2)X  13:41 13:32+2:5313:43 13:37+2:562 5m11-381.86260mECRBhagwanpur, Bihar
18.1BNPTBenipatti Pirapur (1)  13:43-13:43-  1-375.5 6255mECRGhojaul Rd, Bihar
19GRLGoraul (2)  13:51 13:45+2:5413:53 13:47+2:562m11-373.65557mECRVAISHALI, Bihar
19.1KHIKurhani (2)  13:53-13:53-  1-367.8 5556mECRKurhani, Bihar
19.2TURTurki (2)  14:00-14:00-  1-361.4 5555mECRTurki, Bihar
19.3RDRam Dayalu Nagar (3)XO  14:08-14:08-  1-353.7 5556mECRMuzaffarpur, Bihar
20MFPMuzaffarpur Junction (6)  14:28 14:15+2:4714:38 14:20+2:4910 5m11-347.75457mECRMuzaffarpur, Bihar
20.1NRPANarayanpur Anant (3)  14:25-14:25-  1-342.8 5456mECRMuzaffarpur, Bihar
20.2SLTSilaut (2)  14:32-14:32-  1-337.2 5457mECRMuzaffarpur, Bihar
20.3SIHOSiho (2)X  14:40-14:40-  1-329.4 5453mECRNational Highway 28, Bihar
21DOLDholi (2)XO  15:02 14:48+3:3015:04 15:09+3:322 21m--1-322.567 ECRDistt. Muzaffarpur, Bihar
21.1DUBHDubaha (2)  15:14-15:14-  1-316.5 6755mECRDubha Station, Bihar
21.2VBHVishnupur Bathua Halt  15:18-15:18-  1-312.9 6755mECRTajpur - Garhia - Pusa Road, Bihar
22KRBPKhudiram B Pusa (2)X  15:29 15:21+3:2515:31 15:36+3:282 15m--1-309.26352mECRDistt. Samastipur, Bihar
23KPGMKarpurigram (3)XO  15:44 15:43+3:2715:46 15:57+3:282 14m--1-301.83151mECRState Highway 49, Bihar
24SPJSamastipur Junction (9)X  16:10 16:09+3:0416:20 16:14+3:0410 5m--1-295.56355mECRSamastipur, Bihar
24.1BLRIBelari Halt  16:18-16:18-  1-290.9 6351mECRMalti, Bihar
24.2UJPUjiarpur (2)  16:23-16:23-  1-286.5 6351mECRSamastipur, Bihar
24.3NAZJNazirGanj (2)  16:29-16:29-  1-280.2 6351mECRNazirGanj, Bihar
24.4BSRABasarhia Halt (2)  16:32-16:32-  1-276.6 6352mECRBasaria, Bihar
25DSSDalsingh Sarai (2)  16:40 16:36+3:2616:42 16:38+3:262m21-272.351 ECR06278-221238, Bihar
25.1STJTSathajagat (2)  16:43-16:43-  1-267.8 5149mECRSathajagat, Bihar
26BCABachwara Junction (3)XO  16:56 16:51+3:3016:58 16:53+3:372m--1-261.41149mECRBegusarai, Bihar
26.1TGATeghra (3)O  17:41-17:41-  1-252.4 1148mECRBegusarai, Bihar
26.2BUJBarauni Flag (2)X  18:06-18:06-  1-247.7 1149mECRDistt: Begusarai, Bihar
27BJUBarauni Junction (9)X  18:20+2:4918:45+3:0225m61-245.02149mECRBegusarai, Bihar
27.1GHXGarhara (1)  18:53-18:53-  1-242.3 2147mECRSimariya, Bihar
27.2SAEDinkar Gram Simaria (3)  19:02-19:02-  1-239.0 21228mECRBegusarai, Bihar
27.3DKGSDinkar Gram Simaria (3)  19:02-19:02-  1-238.9 2147mECRSimaria Station, Bihar
27.4BTPHChakia Thermal Halt (2)X  19:06-19:06-  1-237.8 2146mECRNational Highway 31, Bihar
27.5RJORajendra Pul (1)X  19:11-19:11-  1-236.1 2149mECRSimaria, Bihar
28HTZUHathidah Upper (1) new halt!!  19:20+2219:21+221m--1-232.82851mECRMurarpur, Bihar
29BRYABarhiya (3)  19:40+3:3519:42+3:362m--1-223.87047mECRBarahiya, Bihar
29.1GGSYGanga SahayX  19:44-19:44-  1-221.2 7044mECRKIUL, Bihar
29.2DMRXDumri Halt (1)X  19:46-19:46-  1-219.6 7049mECRNational Highway 80, Bihar
29.3DJSDhurani Jwas Halt  19:48-19:48-  1-216.3 7046mECRLakhisarai, Bihar
29.4MKBMankatha  19:50-19:50-  1-214.3 7047mECRNational Highway 80, Bihar
30LKRLuckeesarai Junction (2)  19:55+3:4919:57+3:492m21-208.7852mECRLakhisarai, Bihar
31KIULKiul Junction (5)  20:07+3:3220:12+3:315m51-207.46353mECRDist. Lakhisarai, Bihar
31.1MHLTMahesh Leta Halt (2)X  20:14-20:14-  1-205.0 6352mECRKiul, Bihar
31.2LCKLakhochak Halt (2)XO  20:15-20:15-  1-203.8 6352mECRKiul, Bihar
31.3BSQPBansipur (2)  20:16-20:16-  1-203.0 6353mECRKiul, Bihar
31.4BLHRBalahapur Halt (2)  20:17-20:17-  1-202.4 6353mECRSH 18, Bihar
31.5MNPMananpur (2)  20:19-20:19-  1-200.5 6357mECRState Highway 18, Bihar
31.6BFMBhalui (2)  20:21-20:21-  1-197.9 6363mECRState Highway 18, Bihar
31.7KDERKunder Halt (2)  20:28-20:28-  1-190.2 6367mECRSH 18, Bihar
32JMUJamui (3)  20:38+3:4220:40+3:432m--1-180.11881mECRState Highway 72, Bihar
32.1CUXChaura (2)  20:49-20:49-  1-177.5 1890mECRState Highway 18, Bihar
32.2GHRGidhaur (2)  21:29-21:29-  1-165.5 18106mECRState Highway 18, Bihar
32.3DPXDadpur (2)  21:44-21:44-  1-161.3 18116mECRDadpur, Bihar
33JAJJhajha (4)XO  22:08+2:4222:18+2:4910m--1-154.180143mECRJhajha, Bihar
33.1RJLARajla (2)XO  22:21-22:21-  1-149.9 80152mERTola Agaria Kalan, Bihar
33.2NRGONarganjo Halt (2)X  22:24-22:24-  1-146.0 80188mERState Highway 18, Bihar
33.3GHNGhorparan  22:27-22:27-  1-141.9 80230mERSwami Vivekanand College Rd, Bihar
33.4STLSimultala (2)  22:32-22:32-  1-135.4 80247mERSimultala, Bihar
33.5TLBTalwa Bazar (2)  22:34-22:34-  1-132.8 80233mERTola Siantanr, Bihar
33.6LHBLahabon (3)X  22:40-22:40-  1-125.2 80259mERDeoghar, Jharkhand
33.7TTNTulsitanr (2)  22:46-22:46-  1-117.0 80272mERDeoghar, Jharkhand
34JSMEJasidih Junction (5)X  22:51+2:5422:56+2:545m--1-110.070271mERJasidih, Jharkhand
34.1KBQKumrabad Rohini (2)  23:01-23:01-  1-103.6 70231mERKumrabad Rohi, Jharkhand
34.2SNQSankarpur (2)  23:06-23:06-  1-98.8 70242mERDeoghar, Jharkhand
34.3MUWMathurapur (2)  23:11-23:11-  1-92.6 70261mERDeoghar, Jharkhand
34.4NPZNawapatra  23:16-23:16-  1-86.8 70221mERDeoghar, Jharkhand
35MDPMadhupur Junction (4)  23:21+3:1423:25+3:134m--1-80.981254mER06432-224478, Jharkhand
35.1JRWJoramowX  23:32-23:32-  1-71.0 81208mERBarrage on Ajoy River, Jharkhand
35.2MNCMadankata (2)  23:36-23:36-  1-65.6 81208mERBarrage on Ajoy River, Jharkhand
36VDSVidyasagar (2)X  23:43+3:1423:45+3:152m--1-56.774250mERJamtara, Jharkhand
36.1KEEKaseetarX  23:53-23:53-  1-47.0 74219mERJamtara, Jharkhand
36.2JMTJamtara (2)X  23:59-23:59-  1-38.8 74201mERJamtara, Jharkhand
36.3BMBodma  00:07-00:07-  2-29.7 74179mERChittaranjan, West Bengal
37CRJChittaranjan (3)X  00:13 00:11+3:2200:15 00:13+3:232m22-24.540182mERMihijam, Jharkhand
37.1RNPRRupnarayanpur (3)  00:20-00:20-  2-20.0 40191mERChittaranjan, West Bengal
37.2SLSSalanpur (2)  00:30-00:30-  2-12.8 40156mERSalanpur Station, West Bengal
38ULTKulti (3)X  00:41+3:3000:43+3:312m--2-5.839148mERdist - bardhaman, West Bengal
39BRRBarakar (2)O  00:48+3:2600:50+3:262m--2-2.530129mERDist. Bardhaman, West Bengal
40KMME»Kumardubi (2)»  00:55+3:4100:57+3:422m--20.024135mERDhanbad - 828203(06540-222077), Jharkhand
40.1MMUMugma (3)  01:09-01:09-  24.6 24135mERNational Highway 2, Jharkhand
40.2TNWThapar Nagar (2)  01:22-01:22-  29.9 24144mERDhanbad, Jharkhand
40.3KAOKalubathan (2)  01:33-01:33-  214.2 24195mERDhanbad, Jharkhand
40.4CAMChhota Ambana (3)X  01:56-01:56-  223.2 24200mERDhanbad, Jharkhand
40.5PKAPradhankhunta Junction (3)XO  02:12-02:12-  229.4 24202mECRDhanbad, Jharkhand
40.6DOKMDokra Halt (2)X  02:22-02:22-  233.2 24211mECRDokra, Jharkhand
41DHNDhanbad Junction (8)X  02:35+2:4902:55+2:4720m--238.525235mECR2319801. Div. HQ ECR, Jharkhand
41.1KDSKusunda Junction (2)X  03:05-03:05-  242.5 25218mECRKusunda, Jharkhand
41.2BZEBaseria (2)  03:10-03:10-  244.7 25210mECRBaseria, Jharkhand
41.3BZSBansjoraX  03:15-03:15-  246.8 25212mECRDhanbad, Jharkhand
41.4SJASijua  03:21-03:21-  249.3 25206mECRSijua, Jharkhand
41.5ANJEAngarpathra Halt  03:24-03:24-  250.5 25204mECRAngarpathra, Jharkhand
42KTHKatrasgarh (1)  03:28+2:4703:33+2:475m1252.322198mECRKatrasgarh, Jharkhand
42.1TNJETentulla  03:40-03:40-  254.8 22196mECRTentulla, Jharkhand
42.2SZESonardihX  03:44-03:44-  256.2 22197mECRSonardih, Jharkhand
42.3TNOTundu  03:48-03:48-  257.8 22198mECRTundu, Jharkhand
42.4BDQBudora  03:54-03:54-  259.7 22210mECRBudora, Jharkhand
42.5PLJEPhulwartanr (2)  03:56-03:56-  260.6 22219mECRPhulwartanr, Jharkhand
42.6JMXJamuni  04:03-04:03-  263.1 22204mECRJamuni, Jharkhand
42.7JNNAJamuniatanr Halt (1)  04:10-04:10-  265.6 22182mECRNational Highway 32, Jharkhand
42.8DDGADugda (1)  04:18-04:18-  268.3 22209mECRDugda, Jharkhand
42.9DNHDeonagar  04:22-04:22-  269.8 22223mECRDeonagar, Jharkhand
43CRPChandrapura Junction (2)  04:30+2:3204:33+2:333m1272.735227mECR06549-242555, Jharkhand
43.1RJBRajabera  04:40-04:40-  276.9 35198mECRStation Rd, Jharkhand
43.2TKBTupkadih (3)  04:48-04:48-  281.6 35233mSERBokaro, Jharkhand
43.3BKSNBokaro North Cabin  04:55-04:55-  285.6 35239mSERBokaro Steel City, Jharkhand
44BKSCBokaro Steel City (3)  05:00+2:3705:10+2:3410m2288.358245mSER06542-253861, Jharkhand
44.1RDFRadhagaon (3)  05:17-05:17-  294.8 58247mSERPundag Railway Station Rd, Jharkhand
44.2PNWPundhag (3)  05:27-05:27-  2105.0 58291mSERDist - Puruliya -723215, West Bengal
44.3DRGUDamru Ghutu (2)  05:34-05:34-  2111.2 58291mSERAnandnagar Rd, West Bengal
45KSXKotshila Junction (3)X  05:38 05:39+2:3005:40+2:322 1m12116.658312mSERPurulia District, West Bengal
45.1BKDRBegunkodar (2)  05:48-05:48-  2124.0 58314mSERSH 4A, West Bengal
46JAAJhalida (3)  05:51 05:52+2:3305:53+2:352 1m--2128.235297mSERJhalida, West Bengal
46.1THOTulin (3)  06:06-06:06-  2135.7 35267mSERDIST - PURULIYA - 723212, West Bengal
47MURIMuri Junction (3)  06:15+2:3506:20+2:355m32141.042254mSER06522-222444, Jharkhand
47.1SLFSilli (3)  06:29-06:29-  2147.0 42269mSERRanchi, Jharkhand
47.2KITAKita (2)  06:40-06:40-  2154.8 42323mSERState Highway 2, Jharkhand
47.3JONJonha (1)X  07:04-07:04-  2171.6 42470mSERJohna, Jharkhand
47.4KWKCKherwa Kocha (1)X  07:06-07:06-  2173.0 42454mSERlepsar, Jharkhand
47.5GAGGangaghat (2)X  07:19-07:19-  2182.1 42543mSERState Highway 2, Jharkhand
47.6TISTatisilwai (3)X  07:30-07:30-  2189.9 42612mSERTatisilwai, Jharkhand
47.7NKMNamkom (3)  07:39-07:39-  2196.4 42618mSERRanchi, Jharkhand
48RNCRanchi Junction (6)X  07:45+2:2507:55+2:2610m22200.628632mSERDiv HQ SER, Jharkhand
48.1AORArgora (1)  08:00-08:00-  2202.8 28654mSERRanchi, Jharkhand
49HTE•Hatia (3)•  08:10+2:23-32207.6-657mSER2788599, Jharkhand
Scroll to Top
Scroll to Bottom